createdAt,value
2022-11-19T00:00:52.885Z,100.00
2022-11-19T00:03:19.733Z,100.00
2022-11-19T00:05:46.527Z,100.00
2022-11-19T00:08:13.356Z,100.00
2022-11-19T00:10:39.743Z,100.00
2022-11-19T00:13:06.510Z,100.00
2022-11-19T00:15:36.025Z,100.00
2022-11-19T00:18:02.652Z,100.00
2022-11-19T00:20:28.977Z,100.00
2022-11-19T00:22:57.026Z,100.00
2022-11-19T00:25:23.651Z,100.00
2022-11-19T00:27:50.295Z,100.00
2022-11-19T00:30:40.940Z,100.00
2022-11-19T00:33:03.117Z,100.00
2022-11-19T00:35:29.488Z,100.00
2022-11-19T00:37:55.827Z,100.00
2022-11-19T00:40:22.198Z,100.00
2022-11-19T00:43:08.753Z,100.00
2022-11-19T00:45:35.112Z,100.00
2022-11-19T00:48:01.444Z,100.00
2022-11-19T00:50:27.833Z,100.00
2022-11-19T00:52:54.145Z,100.00
2022-11-19T00:55:20.477Z,100.00
2022-11-19T00:57:46.800Z,100.00
2022-11-19T01:00:13.599Z,100.00
2022-11-19T01:02:39.931Z,100.00
2022-11-19T01:05:06.512Z,100.00
2022-11-19T01:07:32.903Z,100.00
2022-11-19T01:09:59.311Z,100.00
2022-11-19T01:12:25.634Z,100.00
2022-11-19T01:14:51.988Z,100.00
2022-11-19T01:17:18.318Z,100.00
2022-11-19T01:19:44.655Z,100.00
2022-11-19T01:22:10.987Z,100.00
2022-11-19T01:24:37.303Z,100.00
2022-11-19T01:27:03.625Z,100.00
2022-11-19T01:29:30.177Z,100.00
2022-11-19T01:31:56.544Z,100.00
2022-11-19T01:34:22.881Z,100.00
2022-11-19T01:36:49.245Z,100.00
2022-11-19T01:39:15.575Z,100.00
2022-11-19T01:41:41.951Z,100.00
2022-11-19T01:44:08.280Z,100.00
2022-11-19T01:46:35.348Z,100.00
2022-11-19T01:49:12.530Z,100.00
2022-11-19T01:51:39.809Z,100.00
2022-11-19T01:54:10.925Z,100.00
2022-11-19T01:56:37.322Z,100.00
2022-11-19T01:59:04.268Z,100.00
2022-11-19T02:01:31.050Z,100.00
2022-11-19T02:03:58.278Z,100.00
2022-11-19T02:06:24.622Z,100.00
2022-11-19T02:08:51.493Z,100.00
2022-11-19T02:11:36.726Z,100.00
2022-11-19T02:14:03.026Z,100.00
2022-11-19T02:16:41.590Z,100.00
2022-11-19T02:19:07.874Z,100.00
2022-11-19T02:21:37.166Z,100.00
2022-11-19T02:24:16.827Z,100.00
2022-11-19T02:27:02.006Z,100.00
2022-11-19T02:29:31.702Z,100.00
2022-11-19T02:31:58.007Z,100.00
2022-11-19T02:34:31.522Z,100.00
2022-11-19T02:36:58.551Z,100.00
2022-11-19T02:39:27.867Z,100.00
2022-11-19T02:41:56.073Z,100.00
2022-11-19T02:44:42.887Z,100.00
2022-11-19T02:47:13.137Z,100.00
2022-11-19T02:49:41.824Z,100.00
2022-11-19T02:52:08.199Z,100.00
2022-11-19T02:54:34.536Z,100.00
2022-11-19T02:57:01.065Z,100.00
2022-11-19T02:59:54.833Z,100.00
2022-11-19T03:02:40.005Z,100.00
2022-11-19T03:05:07.241Z,100.00
2022-11-19T03:07:33.595Z,100.00
2022-11-19T03:10:00.410Z,100.00
2022-11-19T03:12:45.215Z,100.00
2022-11-19T03:15:41.772Z,100.00
2022-11-19T03:18:19.273Z,100.00
2022-11-19T03:20:47.078Z,100.00
2022-11-19T03:23:19.095Z,100.00
2022-11-19T03:25:47.321Z,100.00
2022-11-19T03:28:15.149Z,100.00
2022-11-19T03:30:42.031Z,100.00
2022-11-19T03:33:20.348Z,100.00
2022-11-19T03:35:47.658Z,100.00
2022-11-19T03:38:18.815Z,100.00
2022-11-19T03:40:45.163Z,100.00
2022-11-19T03:43:11.641Z,100.00
2022-11-19T03:45:39.331Z,100.00
2022-11-19T03:48:05.771Z,100.00
2022-11-19T03:50:37.970Z,100.00
2022-11-19T03:53:04.792Z,100.00
2022-11-19T03:55:32.804Z,100.00
2022-11-19T03:58:03.087Z,100.00
2022-11-19T04:00:29.429Z,100.00
2022-11-19T04:02:55.870Z,100.00
2022-11-19T04:05:22.188Z,100.00
2022-11-19T04:07:48.510Z,100.00
2022-11-19T04:10:15.044Z,100.00
2022-11-19T04:12:41.370Z,100.00
2022-11-19T04:15:08.066Z,100.00
2022-11-19T04:17:34.401Z,100.00
2022-11-19T04:20:00.807Z,100.00
2022-11-19T04:22:27.133Z,100.00
2022-11-19T04:24:53.497Z,100.00
2022-11-19T04:27:19.857Z,100.00
2022-11-19T04:29:46.169Z,100.00
2022-11-19T04:32:12.509Z,100.00
2022-11-19T04:34:38.853Z,100.00
2022-11-19T04:37:05.199Z,100.00
2022-11-19T04:39:31.534Z,100.00
2022-11-19T04:41:58.130Z,100.00
2022-11-19T04:44:24.449Z,100.00
2022-11-19T04:46:50.801Z,100.00
2022-11-19T04:49:17.339Z,100.00
2022-11-19T04:51:43.800Z,100.00
2022-11-19T04:54:10.139Z,100.00
2022-11-19T04:56:36.793Z,100.00
2022-11-19T04:59:03.518Z,100.00
2022-11-19T05:01:29.889Z,100.00
2022-11-19T05:03:56.227Z,100.00
2022-11-19T05:06:22.577Z,100.00
2022-11-19T05:08:48.894Z,100.00
2022-11-19T05:11:15.234Z,100.00
2022-11-19T05:13:41.546Z,100.00
2022-11-19T05:16:07.946Z,100.00
2022-11-19T05:18:34.269Z,100.00
2022-11-19T05:21:00.643Z,100.00
2022-11-19T05:23:27.057Z,100.00
2022-11-19T05:25:53.474Z,100.00
2022-11-19T05:28:24.813Z,100.00
2022-11-19T05:30:59.486Z,100.00
2022-11-19T05:33:28.676Z,100.00
2022-11-19T05:35:57.484Z,100.00
2022-11-19T05:38:23.811Z,100.00
2022-11-19T05:40:50.123Z,100.00
2022-11-19T05:43:16.463Z,100.00
2022-11-19T05:45:42.772Z,100.00
2022-11-19T05:48:09.123Z,100.00
2022-11-19T05:50:35.518Z,100.00
2022-11-19T05:53:01.973Z,100.00
2022-11-19T05:55:28.294Z,100.00
2022-11-19T05:57:54.637Z,100.00
2022-11-19T06:00:20.974Z,100.00
2022-11-19T06:02:47.397Z,100.00
2022-11-19T06:05:13.767Z,100.00
2022-11-19T06:07:40.185Z,100.00
2022-11-19T06:10:06.806Z,100.00
2022-11-19T06:12:33.128Z,100.00
2022-11-19T06:15:00.687Z,100.00
2022-11-19T06:17:27.039Z,100.00
2022-11-19T06:19:53.355Z,100.00
2022-11-19T06:22:19.695Z,100.00
2022-11-19T06:24:46.012Z,100.00
2022-11-19T06:27:12.335Z,100.00
2022-11-19T06:29:38.644Z,100.00
2022-11-19T06:32:04.973Z,100.00
2022-11-19T06:34:31.286Z,100.00
2022-11-19T06:36:58.738Z,100.00
2022-11-19T06:39:25.057Z,100.00
2022-11-19T06:41:51.433Z,100.00
2022-11-19T06:44:17.752Z,100.00
2022-11-19T06:46:44.096Z,100.00
2022-11-19T06:49:13.196Z,100.00
2022-11-19T06:51:41.881Z,100.00
2022-11-19T06:54:08.222Z,100.00
2022-11-19T06:56:34.534Z,100.00
2022-11-19T06:59:00.953Z,100.00
2022-11-19T07:01:27.341Z,100.00
2022-11-19T07:03:53.776Z,100.00
2022-11-19T07:06:20.125Z,100.00
2022-11-19T07:08:46.450Z,100.00
2022-11-19T07:11:28.128Z,100.00
2022-11-19T07:13:58.116Z,100.00
2022-11-19T07:16:25.044Z,100.00
2022-11-19T07:18:51.695Z,100.00
2022-11-19T07:21:18.022Z,100.00
2022-11-19T07:23:44.366Z,100.00
2022-11-19T07:26:10.690Z,100.00
2022-11-19T07:28:37.027Z,100.00
2022-11-19T07:31:06.737Z,100.00
2022-11-19T07:33:33.658Z,100.00
2022-11-19T07:36:00.056Z,100.00
2022-11-19T07:38:26.404Z,100.00
2022-11-19T07:40:53.584Z,100.00
2022-11-19T07:43:20.001Z,100.00
2022-11-19T07:45:46.327Z,100.00
2022-11-19T07:48:12.699Z,100.00
2022-11-19T07:50:40.435Z,100.00
2022-11-19T07:53:10.184Z,100.00
2022-11-19T07:55:36.764Z,100.00
2022-11-19T07:58:03.094Z,100.00
2022-11-19T08:00:29.484Z,100.00
2022-11-19T08:02:55.865Z,100.00
2022-11-19T08:05:22.182Z,100.00
2022-11-19T08:07:48.534Z,100.00
2022-11-19T08:10:14.990Z,100.00
2022-11-19T08:12:41.359Z,100.00
2022-11-19T08:15:08.123Z,100.00
2022-11-19T08:17:53.051Z,100.00
2022-11-19T08:20:19.373Z,100.00
2022-11-19T08:22:45.714Z,100.00
2022-11-19T08:25:12.047Z,100.00
2022-11-19T08:27:38.493Z,100.00
2022-11-19T08:30:05.036Z,100.00
2022-11-19T08:32:31.391Z,100.00
2022-11-19T08:34:57.756Z,100.00
2022-11-19T08:37:24.114Z,100.00
2022-11-19T08:39:51.658Z,100.00
2022-11-19T08:42:36.804Z,100.00
2022-11-19T08:45:03.682Z,100.00
2022-11-19T08:47:30.033Z,100.00
2022-11-19T08:49:56.553Z,100.00
2022-11-19T08:52:22.885Z,100.00
2022-11-19T08:54:49.212Z,100.00
2022-11-19T08:57:15.643Z,100.00
2022-11-19T08:59:41.966Z,100.00
2022-11-19T09:02:09.972Z,100.00
2022-11-19T09:04:37.062Z,100.00
2022-11-19T09:07:03.585Z,100.00
2022-11-19T09:09:29.927Z,100.00
2022-11-19T09:11:56.739Z,100.00
2022-11-19T09:14:23.058Z,100.00
2022-11-19T09:16:49.408Z,100.00
2022-11-19T09:19:15.733Z,100.00
2022-11-19T09:21:42.053Z,100.00
2022-11-19T09:24:08.377Z,100.00
2022-11-19T09:26:34.701Z,100.00
2022-11-19T09:29:01.063Z,100.00
2022-11-19T09:31:27.416Z,100.00
2022-11-19T09:33:53.840Z,100.00
2022-11-19T09:36:20.231Z,100.00
2022-11-19T09:38:46.871Z,98.78
2022-11-19T09:41:32.666Z,99.65
2022-11-19T09:44:02.326Z,98.74
2022-11-19T09:46:46.581Z,99.20
2022-11-19T09:49:18.774Z,99.11
2022-11-19T09:51:46.470Z,97.57
2022-11-19T09:54:14.916Z,97.14
2022-11-19T09:56:44.986Z,97.54
2022-11-19T09:59:31.605Z,96.69
2022-11-19T10:01:57.922Z,95.42
2022-11-19T10:04:25.055Z,94.64
2022-11-19T10:07:11.272Z,94.06
2022-11-19T10:09:55.143Z,91.29
2022-11-19T10:12:30.578Z,90.42
2022-11-19T10:14:56.923Z,90.96
2022-11-19T10:17:55.591Z,87.74
2022-11-19T10:20:21.905Z,88.52
2022-11-19T10:22:57.744Z,88.86
2022-11-19T10:25:26.276Z,87.16
2022-11-19T10:27:55.093Z,87.36
2022-11-19T10:30:22.597Z,90.64
2022-11-19T10:32:58.901Z,89.81
2022-11-19T10:35:32.319Z,89.16
2022-11-19T10:37:59.766Z,86.66
2022-11-19T10:40:36.983Z,85.31
2022-11-19T10:43:23.601Z,83.54
2022-11-19T10:45:50.196Z,83.53
2022-11-19T10:48:21.043Z,83.37
2022-11-19T10:50:47.422Z,81.63
2022-11-19T10:53:13.721Z,83.87
2022-11-19T10:55:41.254Z,82.28
2022-11-19T10:58:10.714Z,81.00
2022-11-19T11:00:37.648Z,81.87
2022-11-19T11:03:04.226Z,78.76
2022-11-19T11:05:30.789Z,79.49
2022-11-19T11:07:58.028Z,79.45
2022-11-19T11:10:34.694Z,80.25
2022-11-19T11:13:29.230Z,76.08
2022-11-19T11:15:55.557Z,79.49
2022-11-19T11:18:24.739Z,80.00
2022-11-19T11:20:51.123Z,77.53
2022-11-19T11:23:18.702Z,80.40
2022-11-19T11:26:00.640Z,78.42
2022-11-19T11:28:26.970Z,77.45
2022-11-19T11:30:56.397Z,77.91
2022-11-19T11:33:22.712Z,77.15
2022-11-19T11:35:49.064Z,79.06
2022-11-19T11:38:15.427Z,75.21
2022-11-19T11:40:41.745Z,76.81
2022-11-19T11:43:14.442Z,75.01
2022-11-19T11:45:40.760Z,75.28
2022-11-19T11:48:18.756Z,73.33
2022-11-19T11:50:45.576Z,73.73
2022-11-19T11:53:13.593Z,73.18
2022-11-19T11:55:39.962Z,72.05
2022-11-19T11:58:22.852Z,73.49
2022-11-19T12:00:49.175Z,72.60
2022-11-19T12:03:16.461Z,69.33
2022-11-19T12:05:44.819Z,70.69
2022-11-19T12:08:29.986Z,72.18
2022-11-19T12:10:59.661Z,72.08
2022-11-19T12:13:30.563Z,68.73
2022-11-19T12:15:56.835Z,69.86
2022-11-19T12:18:42.050Z,69.03
2022-11-19T12:21:12.144Z,69.28
2022-11-19T12:23:38.612Z,66.44
2022-11-19T12:26:12.793Z,68.27
2022-11-19T12:28:45.239Z,68.59
2022-11-19T12:31:11.522Z,71.76
2022-11-19T12:33:40.589Z,70.05
2022-11-19T12:36:25.752Z,71.29
2022-11-19T12:38:52.079Z,71.27
2022-11-19T12:41:22.958Z,72.75
2022-11-19T12:43:56.522Z,73.43
2022-11-19T12:46:38.232Z,71.67
2022-11-19T12:49:23.469Z,71.67
2022-11-19T12:51:59.951Z,72.62
2022-11-19T12:54:36.017Z,73.35
2022-11-19T12:57:17.105Z,76.91
2022-11-19T12:59:46.559Z,80.91
2022-11-19T13:02:16.374Z,82.58
2022-11-19T13:05:13.972Z,85.10
2022-11-19T13:07:42.725Z,88.34
2022-11-19T13:10:16.661Z,89.19
2022-11-19T13:12:43.829Z,91.32
2022-11-19T13:15:28.977Z,92.28
2022-11-19T13:17:55.669Z,92.07
2022-11-19T13:20:21.970Z,89.74
2022-11-19T13:22:48.347Z,87.91
2022-11-19T13:25:20.859Z,90.55
2022-11-19T13:27:47.365Z,86.01
2022-11-19T13:30:17.811Z,84.87
2022-11-19T13:32:50.337Z,79.28
2022-11-19T13:35:20.873Z,80.34
2022-11-19T13:37:58.023Z,79.27
2022-11-19T13:40:33.997Z,78.57
2022-11-19T13:43:34.445Z,79.24
2022-11-19T13:46:05.668Z,79.55
2022-11-19T13:48:33.367Z,81.32
2022-11-19T13:51:00.620Z,81.77
2022-11-19T13:53:34.235Z,81.02
2022-11-19T13:56:02.992Z,80.87
2022-11-19T13:58:29.301Z,83.04
2022-11-19T14:01:06.811Z,83.51
2022-11-19T14:03:56.415Z,84.44
2022-11-19T14:06:25.822Z,86.21
2022-11-19T14:09:01.286Z,89.01
2022-11-19T14:11:30.355Z,90.55
2022-11-19T14:13:59.847Z,90.92
2022-11-19T14:16:51.034Z,89.96
2022-11-19T14:19:36.374Z,91.37
2022-11-19T14:22:41.374Z,93.70
2022-11-19T14:25:26.799Z,94.17
2022-11-19T14:27:53.123Z,93.98
2022-11-19T14:30:20.027Z,94.09
2022-11-19T14:32:50.653Z,96.56
2022-11-19T14:35:26.301Z,97.24
2022-11-19T14:37:56.894Z,95.99
2022-11-19T14:40:24.188Z,96.04
2022-11-19T14:43:18.531Z,97.81
2022-11-19T14:46:03.369Z,98.66
2022-11-19T14:48:33.495Z,96.14
2022-11-19T14:51:05.928Z,95.53
2022-11-19T14:53:32.303Z,99.20
2022-11-19T14:55:58.649Z,99.67
2022-11-19T14:58:24.969Z,99.37
2022-11-19T15:00:54.328Z,98.11
2022-11-19T15:03:26.952Z,99.49
2022-11-19T15:05:53.434Z,98.40
2022-11-19T15:08:19.738Z,99.55
2022-11-19T15:10:49.161Z,99.00
2022-11-19T15:13:17.029Z,99.82
2022-11-19T15:15:43.478Z,100.00
2022-11-19T15:18:15.169Z,100.00
2022-11-19T15:20:53.799Z,100.00
2022-11-19T15:23:26.124Z,100.00
2022-11-19T15:26:01.810Z,100.00
2022-11-19T15:28:47.085Z,100.00
2022-11-19T15:31:13.400Z,100.00
2022-11-19T15:33:45.848Z,100.00
2022-11-19T15:36:26.379Z,100.00
2022-11-19T15:38:54.908Z,100.00
2022-11-19T15:41:22.357Z,100.00
2022-11-19T15:43:51.696Z,100.00
2022-11-19T15:46:30.206Z,100.00
2022-11-19T15:49:15.640Z,100.00
2022-11-19T15:52:05.286Z,100.00
2022-11-19T15:54:32.323Z,100.00
2022-11-19T15:57:01.793Z,100.00
2022-11-19T15:59:28.277Z,100.00
2022-11-19T16:02:01.572Z,100.00
2022-11-19T16:04:29.131Z,100.00
2022-11-19T16:06:55.859Z,100.00
2022-11-19T16:09:23.661Z,100.00
2022-11-19T16:12:08.743Z,100.00
2022-11-19T16:14:53.646Z,100.00
2022-11-19T16:17:35.795Z,100.00
2022-11-19T16:20:10.982Z,100.00
2022-11-19T16:22:44.133Z,100.00
2022-11-19T16:25:11.637Z,100.00
2022-11-19T16:27:39.399Z,99.28
2022-11-19T16:30:06.093Z,99.34
2022-11-19T16:32:32.422Z,99.57
2022-11-19T16:35:11.614Z,100.00
2022-11-19T16:37:37.935Z,100.00
2022-11-19T16:40:04.389Z,100.00
2022-11-19T16:42:32.611Z,100.00
2022-11-19T16:45:09.803Z,100.00
2022-11-19T16:47:39.489Z,100.00
2022-11-19T16:50:06.798Z,100.00
2022-11-19T16:52:33.146Z,100.00
2022-11-19T16:54:59.705Z,100.00
2022-11-19T16:57:26.450Z,100.00
2022-11-19T16:59:53.715Z,100.00
2022-11-19T17:02:20.731Z,100.00
2022-11-19T17:04:48.229Z,100.00
2022-11-19T17:07:14.692Z,100.00
2022-11-19T17:09:42.318Z,100.00
2022-11-19T17:12:25.099Z,100.00
2022-11-19T17:14:52.689Z,100.00
2022-11-19T17:17:28.245Z,100.00
2022-11-19T17:19:56.449Z,100.00
2022-11-19T17:22:23.617Z,100.00
2022-11-19T17:24:50.006Z,100.00
2022-11-19T17:27:24.235Z,100.00
2022-11-19T17:29:50.972Z,100.00
2022-11-19T17:32:17.289Z,100.00
2022-11-19T17:34:47.061Z,100.00
2022-11-19T17:37:13.380Z,100.00
2022-11-19T17:39:39.719Z,100.00
2022-11-19T17:42:24.825Z,100.00
2022-11-19T17:44:51.592Z,100.00
2022-11-19T17:47:23.134Z,100.00
2022-11-19T17:49:50.346Z,100.00
2022-11-19T17:52:21.778Z,100.00
2022-11-19T17:54:48.687Z,100.00
2022-11-19T17:57:15.059Z,100.00
2022-11-19T17:59:41.462Z,100.00
2022-11-19T18:02:12.549Z,100.00
2022-11-19T18:04:38.932Z,100.00
2022-11-19T18:07:05.337Z,100.00
2022-11-19T18:09:34.926Z,100.00
2022-11-19T18:12:01.513Z,100.00
2022-11-19T18:14:27.835Z,100.00
2022-11-19T18:16:54.167Z,100.00
2022-11-19T18:19:25.034Z,100.00
2022-11-19T18:21:51.911Z,100.00
2022-11-19T18:24:18.246Z,100.00
2022-11-19T18:26:44.588Z,100.00
2022-11-19T18:29:10.990Z,100.00
2022-11-19T18:31:47.360Z,100.00
2022-11-19T18:34:17.972Z,100.00
2022-11-19T18:36:44.308Z,100.00
2022-11-19T18:39:10.691Z,100.00
2022-11-19T18:41:37.010Z,100.00
2022-11-19T18:44:22.264Z,100.00
2022-11-19T18:46:48.596Z,100.00
2022-11-19T18:49:14.924Z,100.00
2022-11-19T18:51:42.985Z,100.00
2022-11-19T18:54:11.069Z,100.00
2022-11-19T18:56:37.399Z,100.00
2022-11-19T18:59:05.074Z,100.00
2022-11-19T19:01:31.699Z,100.00
2022-11-19T19:03:58.069Z,100.00
2022-11-19T19:06:25.481Z,100.00
2022-11-19T19:08:51.938Z,100.00
2022-11-19T19:11:36.982Z,100.00
2022-11-19T19:14:04.084Z,100.00
2022-11-19T19:16:30.763Z,100.00
2022-11-19T19:18:57.456Z,100.00
2022-11-19T19:21:23.884Z,100.00
2022-11-19T19:23:50.461Z,100.00
2022-11-19T19:26:17.105Z,100.00
2022-11-19T19:28:43.454Z,100.00
2022-11-19T19:31:12.405Z,100.00
2022-11-19T19:33:42.789Z,100.00
2022-11-19T19:36:09.226Z,100.00
2022-11-19T19:38:35.571Z,100.00
2022-11-19T19:41:05.425Z,100.00
2022-11-19T19:43:31.760Z,100.00
2022-11-19T19:46:05.187Z,100.00
2022-11-19T19:48:31.545Z,100.00
2022-11-19T19:50:57.878Z,100.00
2022-11-19T19:53:24.213Z,100.00
2022-11-19T19:55:50.543Z,100.00
2022-11-19T19:58:16.862Z,100.00
2022-11-19T20:00:43.305Z,100.00
2022-11-19T20:03:09.622Z,100.00
2022-11-19T20:05:35.958Z,100.00
2022-11-19T20:08:02.544Z,100.00
2022-11-19T20:10:28.869Z,100.00
2022-11-19T20:13:13.917Z,100.00
2022-11-19T20:15:41.151Z,100.00
2022-11-19T20:18:07.483Z,100.00
2022-11-19T20:20:33.809Z,100.00
2022-11-19T20:23:00.169Z,100.00
2022-11-19T20:25:26.734Z,100.00
2022-11-19T20:27:53.056Z,100.00
2022-11-19T20:30:19.394Z,100.00
2022-11-19T20:32:46.021Z,100.00
2022-11-19T20:35:12.387Z,100.00
2022-11-19T20:37:38.721Z,100.00
2022-11-19T20:40:05.422Z,100.00
2022-11-19T20:42:50.632Z,100.00
2022-11-19T20:45:17.043Z,100.00
2022-11-19T20:47:43.455Z,100.00
2022-11-19T20:50:09.786Z,100.00
2022-11-19T20:52:36.215Z,100.00
2022-11-19T20:55:06.629Z,100.00
2022-11-19T20:57:33.344Z,100.00
2022-11-19T21:00:00.344Z,100.00
2022-11-19T21:02:26.766Z,100.00
2022-11-19T21:04:53.131Z,100.00
2022-11-19T21:07:19.515Z,100.00
2022-11-19T21:09:45.980Z,100.00
2022-11-19T21:12:12.324Z,100.00
2022-11-19T21:14:38.665Z,100.00
2022-11-19T21:17:05.006Z,100.00
2022-11-19T21:19:31.323Z,100.00
2022-11-19T21:21:58.101Z,100.00
2022-11-19T21:24:24.600Z,100.00
2022-11-19T21:26:50.961Z,100.00
2022-11-19T21:29:17.331Z,100.00
2022-11-19T21:31:48.589Z,100.00
2022-11-19T21:34:15.765Z,100.00
2022-11-19T21:36:42.268Z,100.00
2022-11-19T21:39:08.681Z,100.00
2022-11-19T21:41:35.145Z,100.00
2022-11-19T21:44:01.737Z,100.00
2022-11-19T21:46:28.087Z,100.00
2022-11-19T21:48:54.436Z,100.00
2022-11-19T21:51:24.577Z,100.00
2022-11-19T21:53:53.116Z,100.00
2022-11-19T21:56:19.450Z,100.00
2022-11-19T21:58:45.772Z,100.00
2022-11-19T22:01:12.279Z,100.00
2022-11-19T22:03:38.653Z,100.00
2022-11-19T22:06:06.012Z,100.00
2022-11-19T22:08:32.937Z,100.00
2022-11-19T22:10:59.470Z,100.00
2022-11-19T22:13:25.878Z,100.00
2022-11-19T22:15:58.913Z,100.00
2022-11-19T22:18:25.245Z,100.00
2022-11-19T22:20:59.632Z,100.00
2022-11-19T22:23:25.963Z,100.00
2022-11-19T22:25:52.311Z,100.00
2022-11-19T22:28:18.626Z,100.00
2022-11-19T22:30:47.608Z,100.00
2022-11-19T22:33:13.936Z,100.00
2022-11-19T22:35:40.266Z,100.00
2022-11-19T22:38:06.599Z,100.00
2022-11-19T22:40:32.932Z,100.00
2022-11-19T22:42:59.246Z,100.00
2022-11-19T22:45:25.574Z,100.00
2022-11-19T22:47:51.912Z,100.00
2022-11-19T22:50:18.225Z,100.00
2022-11-19T22:52:44.583Z,100.00
2022-11-19T22:55:11.026Z,100.00
2022-11-19T22:57:37.378Z,100.00
2022-11-19T23:00:06.258Z,100.00
2022-11-19T23:02:32.614Z,100.00
2022-11-19T23:04:58.961Z,100.00
2022-11-19T23:07:25.378Z,100.00
2022-11-19T23:09:51.740Z,100.00
2022-11-19T23:12:36.900Z,100.00
2022-11-19T23:15:03.262Z,100.00
2022-11-19T23:17:29.589Z,100.00
2022-11-19T23:19:59.142Z,100.00
2022-11-19T23:22:28.136Z,100.00
2022-11-19T23:24:54.462Z,100.00
2022-11-19T23:27:22.299Z,100.00
2022-11-19T23:29:48.769Z,100.00
2022-11-19T23:32:15.110Z,100.00
2022-11-19T23:34:41.436Z,100.00
2022-11-19T23:37:08.011Z,100.00
2022-11-19T23:39:34.349Z,100.00
2022-11-19T23:42:00.697Z,100.00
2022-11-19T23:44:27.077Z,100.00
2022-11-19T23:46:53.408Z,100.00
2022-11-19T23:49:20.066Z,100.00
2022-11-19T23:51:46.599Z,100.00
2022-11-19T23:54:13.806Z,100.00
2022-11-19T23:56:40.262Z,100.00
2022-11-19T23:59:06.697Z,100.00
